Have a Safe July 4th! 

Flight Track Log - Related Links

Times and Time Zones

All times are in EDT time to prevent confusion due to time zone crossing. See the EGF4248 flight status page for this flight to view local times or setup timezone preferences in your user account.

Time Position Orientation Groundspeed Altitude Reporting Facility
EDT Latitude Longitude Course Direction KTS MPH feet Rate Location/Type
Fri 09:22:15 PM 41.5370 -93.6315 306° West  Level FlightAware Approximate
Fri 09:23:19 PM 41.5742 -93.6992 22° Northeast 182 209 3,700  Level Minneapolis Center
Fri 09:24:20 PM 41.6242 -93.6717 72° East 240 276 6,700 2,476 Climbing Minneapolis Center
Fri 09:26:45 PM 41.6769 -93.4481 68° East 278 320 12,200 2,195 Climbing Chicago Center
Fri 09:27:45 PM 41.7125 -93.3281 71° East 312 359 14,200 2,150 Climbing Chicago Center
Fri 09:28:45 PM 41.7486 -93.1883 65° Northeast 336 387 16,500 2,100 Climbing Chicago Center
Fri 09:29:45 PM 41.7900 -93.0708 74° East 355 409 18,400 1,950 Climbing Chicago Center
Fri 09:30:45 PM 41.8194 -92.9333 71° East 365 420 20,400 2,000 Climbing Chicago Center
Fri 09:31:45 PM 41.8547 -92.7958 69° East 372 428 22,400 2,000 Climbing Chicago Center
Fri 09:32:45 PM 41.8922 -92.6611 70° East 377 434 24,400 2,000 Climbing Chicago Center
Fri 09:33:45 PM 41.9294 -92.5261 70° East 382 440 26,400 1,300 Climbing Chicago Center
Fri 09:34:45 PM 41.9664 -92.3911 70° East 382 440 27,000 300 Climbing Chicago Center
Fri 09:35:45 PM 42.0056 -92.2450 70° East 393 452 27,000  Level Chicago Center
Fri 09:36:45 PM 42.0447 -92.0958 71° East 406 467 27,000  Level Chicago Center
Fri 09:37:45 PM 42.0814 -91.9544 69° East 428 493 27,000  Level Chicago Center
Fri 09:38:45 PM 42.1242 -91.8022 71° East 434 499 27,000  Level Chicago Center
Fri 09:39:45 PM 42.1631 -91.6469 71° East 439 505 27,000  Level Chicago Center
Fri 09:40:45 PM 42.2033 -91.4914 71° East 439 505 27,000  Level Chicago Center
Fri 09:41:45 PM 42.2417 -91.3383 70° East 439 505 27,000  Level Chicago Center
Fri 09:42:45 PM 42.2839 -91.1797 71° East 439 505 27,000  Level Chicago Center
Fri 09:43:45 PM 42.3258 -91.0181 72° East 439 505 27,000  Level Chicago Center
Fri 09:44:45 PM 42.3658 -90.8533 77° East 439 505 27,000 -250 Level Chicago Center
Fri 09:45:45 PM 42.3950 -90.6853 87° East 445 512 26,500 -1,100 Descending Chicago Center
Fri 09:46:45 PM 42.4011 -90.4942 87° East 463 533 24,800 -1,350 Descending Chicago Center
Fri 09:47:45 PM 42.4069 -90.3256 87° East 458 527 23,800 -1,400 Descending Chicago Center
Fri 09:48:45 PM 42.4122 -90.1597 86° East 452 520 22,000 -1,850 Descending Chicago Center
Fri 09:49:45 PM 42.4217 -89.9939 90° East 445 512 20,100 -1,600 Descending Chicago Center
Fri 09:50:45 PM 42.4222 -89.8533 86° East 426 490 18,800 -1,300 Descending Chicago Center
Fri 09:51:45 PM 42.4292 -89.7014 88° East 412 474 17,500 -1,400 Descending Chicago Center
Fri 09:52:45 PM 42.4336 -89.5467 87° East 406 467 16,000 -1,450 Descending Chicago Center
Fri 09:53:45 PM 42.4400 -89.3978 93° East 401 461 14,600 -1,450 Descending Chicago Center
Fri 09:54:45 PM 42.4339 -89.2514 96° East 396 456 13,100 -1,300 Descending Chicago Center
Fri 09:55:45 PM 42.4231 -89.1164 97° East 380 437 12,000 -500 Descending Chicago Center
Fri 09:56:45 PM 42.4125 -88.9983 95° East 331 381 12,100 -350 Climbing Chicago Center
Fri 09:57:45 PM 42.4058 -88.8858 96° East 308 354 11,300 -900 Descending Chicago Center
Fri 09:58:45 PM 42.3969 -88.7736 96° East 308 354 10,300 -1,000 Descending Chicago Center
Fri 09:59:45 PM 42.3881 -88.6639 96° East 303 349 9,300 -650 Descending Chicago Center
Fri 10:00:45 PM 42.3789 -88.5544 108° East 291 335 9,000 -250 Descending Chicago Center
Fri 10:01:45 PM 42.3553 -88.4564 162° South 291 335 8,800 -900 Descending Chicago Center
Fri 10:02:45 PM 42.2739 -88.4211 160° South 309 356 7,200 -900 Descending Chicago Center
Fri 10:03:45 PM 42.1983 -88.3831 170° South 304 350 7,000 -200 Descending Chicago Center
Fri 10:04:45 PM 42.1233 -88.3644 170° South 293 337 6,800 -850 Descending Chicago Center
Fri 10:05:45 PM 42.0439 -88.3461 137° Southeast 288 331 5,300 -711 Descending Chicago Center
Fri 10:07:17 PM 41.9667 -88.2500 90° East 241 277 5,000 -329 Descending Chicago TRACON
Fri 10:08:11 PM 41.9667 -88.1833 90° East 212 244 4,500 -850 Descending Chicago TRACON
Fri 10:09:17 PM 41.9667 -88.1000 90° East 166 191 3,300 -850 Descending Chicago TRACON
Fri 10:10:11 PM 41.9667 -88.0500 90° East 160 184 2,800 -556 Descending Chicago TRACON

Login

Don't have an account? Register now (free) for customized features, flight alerts, and more!